createdAt,value
2022-08-26T00:00:12.325Z,96348.00
2022-08-26T00:02:42.975Z,96347.56
2022-08-26T00:05:11.206Z,96346.47
2022-08-26T00:07:39.642Z,96341.91
2022-08-26T00:10:12.348Z,96345.06
2022-08-26T00:12:40.574Z,96339.22
2022-08-26T00:15:14.979Z,96342.75
2022-08-26T00:17:43.357Z,96343.66
2022-08-26T00:20:15.625Z,96339.69
2022-08-26T00:22:43.809Z,96338.63
2022-08-26T00:25:13.105Z,96334.13
2022-08-26T00:27:41.732Z,96328.81
2022-08-26T00:30:24.247Z,96333.91
2022-08-26T00:32:55.094Z,96333.97
2022-08-26T00:35:25.196Z,96332.06
2022-08-26T00:37:57.408Z,96336.38
2022-08-26T00:40:32.905Z,96334.19
2022-08-26T00:43:02.162Z,96336.41
2022-08-26T00:45:45.294Z,96330.53
2022-08-26T00:48:15.004Z,96331.38
2022-08-26T00:50:51.902Z,96329.53
2022-08-26T00:53:26.050Z,96327.69
2022-08-26T00:56:03.090Z,96332.53
2022-08-26T00:58:34.055Z,96337.38
2022-08-26T01:01:03.621Z,96338.34
2022-08-26T01:03:35.691Z,96330.38
2022-08-26T01:06:05.283Z,96331.94
2022-08-26T01:08:41.089Z,96333.59
2022-08-26T01:11:10.621Z,96330.72
2022-08-26T01:13:39.687Z,96330.53
2022-08-26T01:16:13.773Z,96337.25
2022-08-26T01:18:45.106Z,96328.94
2022-08-26T01:21:20.422Z,96328.03
2022-08-26T01:23:57.238Z,96336.34
2022-08-26T01:26:30.730Z,96336.59
2022-08-26T01:29:03.340Z,96334.69
2022-08-26T01:31:39.688Z,96334.00
2022-08-26T01:34:16.891Z,96330.56
2022-08-26T01:36:49.308Z,96333.31
2022-08-26T01:39:21.440Z,96336.56
2022-08-26T01:41:51.835Z,96333.06
2022-08-26T01:44:27.747Z,96336.88
2022-08-26T01:46:58.313Z,96327.81
2022-08-26T01:49:29.030Z,96342.28
2022-08-26T01:52:00.219Z,96338.84
2022-08-26T01:54:29.559Z,96336.34
2022-08-26T01:56:59.509Z,96336.34
2022-08-26T01:59:28.134Z,96334.53
2022-08-26T02:01:56.935Z,96337.78
2022-08-26T02:04:30.309Z,96344.50
2022-08-26T02:06:59.195Z,96344.03
2022-08-26T02:09:28.680Z,96344.81
2022-08-26T02:12:01.320Z,96348.34
2022-08-26T02:14:35.470Z,96343.56
2022-08-26T02:17:12.983Z,96339.56
2022-08-26T02:19:46.286Z,96344.09
2022-08-26T02:22:19.845Z,96348.34
2022-08-26T02:24:52.725Z,96348.91
2022-08-26T02:27:25.642Z,96351.03
2022-08-26T02:30:01.554Z,96340.53
2022-08-26T02:32:29.668Z,96340.59
2022-08-26T02:34:58.018Z,96340.88
2022-08-26T02:37:30.952Z,96342.50
2022-08-26T02:40:00.369Z,96335.56
2022-08-26T02:42:28.508Z,96334.50
2022-08-26T02:44:56.710Z,96329.97
2022-08-26T02:47:25.465Z,96326.47
2022-08-26T02:49:57.334Z,96333.44
2022-08-26T02:52:25.501Z,96329.19
2022-08-26T02:54:54.171Z,96330.72
2022-08-26T02:57:24.699Z,96327.81
2022-08-26T02:59:52.756Z,96331.31
2022-08-26T03:02:21.378Z,96323.06
2022-08-26T03:04:58.066Z,96326.34
2022-08-26T03:07:30.436Z,96319.41
2022-08-26T03:09:58.705Z,96315.97
2022-08-26T03:12:28.922Z,96318.38
2022-08-26T03:14:57.922Z,96322.41
2022-08-26T03:17:26.830Z,96318.16
2022-08-26T03:19:57.315Z,96322.91
2022-08-26T03:22:27.053Z,96315.97
2022-08-26T03:24:55.652Z,96324.03
2022-08-26T03:27:23.680Z,96313.13
2022-08-26T03:30:11.828Z,96314.50
2022-08-26T03:32:41.535Z,96315.03
2022-08-26T03:35:10.615Z,96317.22
2022-08-26T03:37:39.616Z,96315.03
2022-08-26T03:40:11.485Z,96316.13
2022-08-26T03:42:41.327Z,96314.50
2022-08-26T03:45:16.974Z,96321.19
2022-08-26T03:47:46.146Z,96315.31
2022-08-26T03:50:22.883Z,96320.38
2022-08-26T03:52:54.769Z,96318.00
2022-08-26T03:55:27.283Z,96322.00
2022-08-26T03:57:55.926Z,96319.34
2022-08-26T04:00:25.795Z,96318.53
2022-08-26T04:02:54.314Z,96313.44
2022-08-26T04:05:24.259Z,96316.13
2022-08-26T04:07:53.032Z,96310.50
2022-08-26T04:10:26.415Z,96317.75
2022-08-26T04:12:58.736Z,96314.59
2022-08-26T04:15:29.144Z,96314.84
2022-08-26T04:17:57.725Z,96315.66
2022-08-26T04:20:26.233Z,96312.19
2022-08-26T04:22:54.383Z,96310.28
2022-08-26T04:25:22.539Z,96313.53
2022-08-26T04:27:52.390Z,96307.66
2022-08-26T04:30:21.247Z,96311.94
2022-08-26T04:32:50.919Z,96316.47
2022-08-26T04:35:21.835Z,96314.13
2022-08-26T04:37:55.268Z,96311.91
2022-08-26T04:40:23.862Z,96314.03
2022-08-26T04:42:51.953Z,96306.06
2022-08-26T04:45:44.525Z,96303.94
2022-08-26T04:48:16.868Z,96299.91
2022-08-26T04:50:45.114Z,96312.50
2022-08-26T04:53:19.270Z,96311.19
2022-08-26T04:55:48.464Z,96303.44
2022-08-26T04:58:18.169Z,96314.13
2022-08-26T05:00:47.699Z,96309.81
2022-08-26T05:03:18.215Z,96315.44
2022-08-26T05:05:49.814Z,96312.22
2022-08-26T05:08:21.119Z,96318.91
2022-08-26T05:10:52.473Z,96313.31
2022-08-26T05:13:21.972Z,96325.31
2022-08-26T05:15:51.933Z,96327.19
2022-08-26T05:18:23.960Z,96321.84
2022-08-26T05:20:55.865Z,96318.91
2022-08-26T05:23:24.937Z,96321.31
2022-08-26T05:25:59.173Z,96319.16
2022-08-26T05:28:29.017Z,96324.81
2022-08-26T05:30:57.627Z,96322.09
2022-08-26T05:33:27.045Z,96327.94
2022-08-26T05:35:55.050Z,96333.03
2022-08-26T05:38:23.716Z,96329.56
2022-08-26T05:40:53.370Z,96336.47
2022-08-26T05:43:22.163Z,96331.13
2022-08-26T05:45:51.373Z,96334.34
2022-08-26T05:48:24.178Z,96338.63
2022-08-26T05:50:54.893Z,96340.72
2022-08-26T05:53:26.065Z,96342.88
2022-08-26T05:55:56.196Z,96342.03
2022-08-26T05:58:24.837Z,96345.78
2022-08-26T06:01:01.108Z,96351.41
2022-08-26T06:03:29.532Z,96344.19
2022-08-26T06:05:59.414Z,96349.25
2022-08-26T06:08:27.536Z,96353.53
2022-08-26T06:11:00.515Z,96357.03
2022-08-26T06:13:31.934Z,96358.31
2022-08-26T06:16:01.349Z,96358.56
2022-08-26T06:18:32.733Z,96354.00
2022-08-26T06:21:12.917Z,96358.50
2022-08-26T06:23:58.375Z,96356.09
2022-08-26T06:26:27.382Z,96352.56
2022-08-26T06:28:55.542Z,96351.72
2022-08-26T06:31:25.179Z,96351.94
2022-08-26T06:33:54.373Z,96355.88
2022-08-26T06:36:27.076Z,96366.28
2022-08-26T06:38:56.723Z,96360.31
2022-08-26T06:41:25.803Z,96364.03
2022-08-26T06:43:54.133Z,96367.75
2022-08-26T06:46:23.009Z,96369.53
2022-08-26T06:48:55.349Z,96370.25
2022-08-26T06:51:27.545Z,96365.59
2022-08-26T06:53:59.477Z,96373.50
2022-08-26T06:56:30.211Z,96365.94
2022-08-26T06:58:58.289Z,96359.94
2022-08-26T07:01:28.771Z,96369.69
2022-08-26T07:04:00.594Z,96365.03
2022-08-26T07:06:31.116Z,96369.78
2022-08-26T07:09:04.856Z,96368.81
2022-08-26T07:11:33.712Z,96371.13
2022-08-26T07:14:02.023Z,96371.06
2022-08-26T07:16:30.751Z,96371.22
2022-08-26T07:18:59.427Z,96377.53
2022-08-26T07:21:30.582Z,96373.38
2022-08-26T07:24:01.263Z,96374.31
2022-08-26T07:26:31.379Z,96376.84
2022-08-26T07:29:01.681Z,96372.84
2022-08-26T07:31:39.444Z,96375.88
2022-08-26T07:34:10.791Z,96369.91
2022-08-26T07:36:40.475Z,96365.97
2022-08-26T07:39:09.190Z,96377.97
2022-08-26T07:41:37.545Z,96374.66
2022-08-26T07:44:06.760Z,96369.84
2022-08-26T07:46:36.768Z,96370.06
2022-08-26T07:49:05.663Z,96373.47
2022-08-26T07:51:35.394Z,96370.22
2022-08-26T07:54:07.937Z,96364.22
2022-08-26T07:56:36.111Z,96369.00
2022-08-26T07:59:13.657Z,96366.50
2022-08-26T08:01:45.142Z,96371.69
2022-08-26T08:04:14.346Z,96370.06
2022-08-26T08:06:43.921Z,96366.16
2022-08-26T08:09:16.035Z,96368.63
2022-08-26T08:11:45.638Z,96365.13
2022-08-26T08:14:16.732Z,96360.84
2022-08-26T08:16:47.005Z,96367.91
2022-08-26T08:19:19.213Z,96365.94
2022-08-26T08:21:47.279Z,96361.91
2022-08-26T08:24:17.002Z,96357.75
2022-08-26T08:26:45.939Z,96359.16
2022-08-26T08:29:14.534Z,96364.34
2022-08-26T08:31:56.859Z,96361.88
2022-08-26T08:34:28.826Z,96359.50
2022-08-26T08:36:57.073Z,96365.25
2022-08-26T08:39:27.396Z,96357.25
2022-08-26T08:42:20.515Z,96358.97
2022-08-26T08:44:56.823Z,96354.53
2022-08-26T08:47:35.102Z,96361.56
2022-08-26T08:50:18.511Z,96357.16
2022-08-26T08:52:55.856Z,96364.22
2022-08-26T08:55:32.093Z,96359.31
2022-08-26T08:58:06.598Z,96360.72
2022-08-26T09:00:47.701Z,96355.38
2022-08-26T09:03:33.343Z,96357.63
2022-08-26T09:06:16.824Z,96354.44
2022-08-26T09:08:49.920Z,96350.81
2022-08-26T09:11:21.303Z,96352.75
2022-08-26T09:13:55.988Z,96354.50
2022-08-26T09:16:38.300Z,96351.03
2022-08-26T09:19:18.975Z,96347.72
2022-08-26T09:21:47.511Z,96358.81
2022-08-26T09:24:22.246Z,96348.50
2022-08-26T09:26:52.768Z,96344.69
2022-08-26T09:29:25.550Z,96350.69
2022-08-26T09:32:13.864Z,96349.94
2022-08-26T09:34:59.513Z,96348.03
2022-08-26T09:37:43.959Z,96351.84
2022-08-26T09:40:27.115Z,96351.22
2022-08-26T09:43:22.867Z,96340.88
2022-08-26T09:45:59.534Z,96335.41
2022-08-26T09:48:34.848Z,96330.38
2022-08-26T09:51:26.258Z,96328.47
2022-08-26T09:53:57.505Z,96322.22
2022-08-26T09:56:32.045Z,96320.94
2022-08-26T09:59:03.132Z,96309.13
2022-08-26T10:01:38.326Z,96307.03
2022-08-26T10:04:11.017Z,96302.75
2022-08-26T10:06:44.545Z,96298.91
2022-08-26T10:09:18.518Z,96297.00
2022-08-26T10:11:53.461Z,96292.56
2022-08-26T10:14:29.215Z,96282.19
2022-08-26T10:17:06.875Z,96284.53
2022-08-26T10:19:51.625Z,96286.63
2022-08-26T10:22:31.218Z,96285.84
2022-08-26T10:25:03.244Z,96296.13
2022-08-26T10:27:49.582Z,96287.19
2022-08-26T10:30:24.218Z,96284.91
2022-08-26T10:32:58.715Z,96285.06
2022-08-26T10:35:27.368Z,96280.25
2022-08-26T10:37:59.532Z,96281.44
2022-08-26T10:40:31.652Z,96277.00
2022-08-26T10:43:11.433Z,96280.16
2022-08-26T10:45:48.524Z,96283.34
2022-08-26T10:48:25.620Z,96287.47
2022-08-26T10:51:08.607Z,96291.31
2022-08-26T10:53:46.063Z,96277.56
2022-08-26T10:56:33.721Z,96282.22
2022-08-26T10:59:12.341Z,96272.41
2022-08-26T11:01:51.092Z,96265.63
2022-08-26T11:04:58.001Z,96259.69
2022-08-26T11:07:43.397Z,96253.34
2022-08-26T11:10:46.470Z,96254.44
2022-08-26T11:13:14.550Z,96251.34
2022-08-26T11:16:01.095Z,96248.34
2022-08-26T11:18:44.646Z,96239.91
2022-08-26T11:22:06.231Z,96239.44
2022-08-26T11:25:07.393Z,96246.69
2022-08-26T11:27:57.682Z,96243.28
2022-08-26T11:30:56.817Z,96230.59
2022-08-26T11:33:59.465Z,96237.25
2022-08-26T11:37:13.481Z,96239.16
2022-08-26T11:39:54.701Z,96237.47
2022-08-26T11:42:34.472Z,96222.25
2022-08-26T11:45:14.330Z,96222.50
2022-08-26T11:47:42.511Z,96227.06
2022-08-26T11:50:17.728Z,96220.78
2022-08-26T11:52:54.182Z,96215.34
2022-08-26T11:55:24.222Z,96217.25
2022-08-26T11:57:56.758Z,96220.56
2022-08-26T12:00:34.498Z,96228.53
2022-08-26T12:03:09.190Z,96233.72
2022-08-26T12:05:45.251Z,96235.16
2022-08-26T12:08:19.042Z,96237.44
2022-08-26T12:10:48.260Z,96242.22
2022-08-26T12:13:23.950Z,96233.41
2022-08-26T12:15:57.130Z,96229.34
2022-08-26T12:18:30.257Z,96225.75
2022-08-26T12:21:12.223Z,96225.75
2022-08-26T12:23:46.808Z,96217.00
2022-08-26T12:26:24.141Z,96216.31
2022-08-26T12:28:57.976Z,96214.28
2022-08-26T12:31:31.177Z,96218.44
2022-08-26T12:34:01.199Z,96220.81
2022-08-26T12:36:36.012Z,96217.53
2022-08-26T12:39:10.934Z,96215.38
2022-08-26T12:41:50.192Z,96215.94
2022-08-26T12:44:53.200Z,96215.09
2022-08-26T12:47:36.922Z,96208.34
2022-08-26T12:50:18.964Z,96196.97
2022-08-26T12:53:00.009Z,96195.28
2022-08-26T12:55:39.710Z,96191.78
2022-08-26T12:58:21.200Z,96177.88
2022-08-26T13:00:50.726Z,96180.25
2022-08-26T13:03:43.787Z,96182.28
2022-08-26T13:06:36.477Z,96182.38
2022-08-26T13:09:31.289Z,96193.13
2022-08-26T13:12:02.262Z,96184.16
2022-08-26T13:14:31.057Z,96182.34
2022-08-26T13:16:59.121Z,96176.94
2022-08-26T13:19:27.447Z,96171.19
2022-08-26T13:21:58.359Z,96175.59
2022-08-26T13:24:31.869Z,96170.38
2022-08-26T13:27:02.044Z,96178.09
2022-08-26T13:29:30.277Z,96172.53
2022-08-26T13:31:59.799Z,96163.88
2022-08-26T13:34:29.303Z,96164.91
2022-08-26T13:36:58.375Z,96165.78
2022-08-26T13:39:27.373Z,96162.16
2022-08-26T13:41:55.753Z,96168.81
2022-08-26T13:44:25.352Z,96161.72
2022-08-26T13:46:53.654Z,96166.72
2022-08-26T13:49:22.180Z,96159.41
2022-08-26T13:51:50.316Z,96162.97
2022-08-26T13:54:18.409Z,96167.88
2022-08-26T13:56:46.465Z,96163.38
2022-08-26T13:59:14.504Z,96164.31
2022-08-26T14:01:44.022Z,96160.31
2022-08-26T14:04:12.124Z,96156.38
2022-08-26T14:06:40.228Z,96154.59
2022-08-26T14:09:08.258Z,96152.03
2022-08-26T14:11:50.715Z,96146.94
2022-08-26T14:14:22.895Z,96144.88
2022-08-26T14:16:59.681Z,96152.22
2022-08-26T14:19:30.556Z,96141.53
2022-08-26T14:22:00.724Z,96146.94
2022-08-26T14:24:29.896Z,96141.00
2022-08-26T14:26:58.465Z,96133.84
2022-08-26T14:29:26.675Z,96141.31
2022-08-26T14:31:57.858Z,96141.53
2022-08-26T14:34:29.609Z,96140.81
2022-08-26T14:36:57.717Z,96143.09
2022-08-26T14:39:37.004Z,96129.19
2022-08-26T14:42:05.561Z,96136.50
2022-08-26T14:44:34.375Z,96127.97
2022-08-26T14:47:06.682Z,96125.63
2022-08-26T14:49:34.850Z,96131.03
2022-08-26T14:52:03.049Z,96136.56
2022-08-26T14:54:30.208Z,96135.97
2022-08-26T14:57:03.536Z,96135.06
2022-08-26T14:59:34.944Z,96136.19
2022-08-26T15:02:06.115Z,96132.13
2022-08-26T15:04:35.063Z,96135.97
2022-08-26T15:07:04.564Z,96123.56
2022-08-26T15:09:37.257Z,96128.44
2022-08-26T15:12:06.653Z,96141.84
2022-08-26T15:14:34.694Z,96152.94
2022-08-26T15:17:04.656Z,96166.47
2022-08-26T15:19:32.702Z,96178.47
2022-08-26T15:22:00.726Z,96178.25
2022-08-26T15:24:29.651Z,96174.78
2022-08-26T15:26:57.810Z,96184.31
2022-08-26T15:29:25.913Z,96205.59
2022-08-26T15:31:57.309Z,96194.53
2022-08-26T15:34:27.633Z,96190.75
2022-08-26T15:36:55.708Z,96206.47
2022-08-26T15:39:23.963Z,96210.75
2022-08-26T15:41:52.070Z,96218.91
2022-08-26T15:44:20.647Z,96208.72
2022-08-26T15:46:50.849Z,96216.31
2022-08-26T15:49:20.590Z,96214.44
2022-08-26T15:51:51.122Z,96212.63
2022-08-26T15:54:23.488Z,96214.41
2022-08-26T15:56:53.005Z,96221.81
2022-08-26T15:59:22.954Z,96232.00
2022-08-26T16:01:51.981Z,96245.41
2022-08-26T16:04:20.271Z,96244.34
2022-08-26T16:06:51.956Z,96273.38
2022-08-26T16:09:21.318Z,96276.66
2022-08-26T16:11:50.514Z,96281.38
2022-08-26T16:14:18.561Z,96280.50
2022-08-26T16:16:47.102Z,96289.88
2022-08-26T16:19:15.773Z,96298.75
2022-08-26T16:21:44.800Z,96302.38
2022-08-26T16:24:14.588Z,96303.81
2022-08-26T16:26:44.273Z,96312.09
2022-08-26T16:29:15.934Z,96316.69
2022-08-26T16:31:44.438Z,96318.41
2022-08-26T16:34:12.749Z,96328.88
2022-08-26T16:36:41.554Z,96324.81
2022-08-26T16:39:10.312Z,96326.94
2022-08-26T16:41:39.837Z,96329.34
2022-08-26T16:44:08.995Z,96336.19
2022-08-26T16:46:38.816Z,96336.69
2022-08-26T16:49:06.960Z,96334.78
2022-08-26T16:51:37.783Z,96334.00
2022-08-26T16:54:08.093Z,96331.91
2022-08-26T16:56:37.267Z,96330.91
2022-08-26T16:59:10.447Z,96330.47
2022-08-26T17:01:38.800Z,96327.47
2022-08-26T17:04:06.894Z,96327.19
2022-08-26T17:06:35.001Z,96323.22
2022-08-26T17:09:03.507Z,96321.81
2022-08-26T17:11:31.733Z,96327.72
2022-08-26T17:13:59.828Z,96326.75
2022-08-26T17:16:29.429Z,96318.19
2022-08-26T17:18:58.893Z,96317.19
2022-08-26T17:21:28.107Z,96315.63
2022-08-26T17:23:56.264Z,96304.41
2022-08-26T17:26:24.387Z,96303.69
2022-08-26T17:28:53.149Z,96297.41
2022-08-26T17:31:23.242Z,96297.63
2022-08-26T17:33:54.327Z,96290.22
2022-08-26T17:36:27.906Z,96296.47
2022-08-26T17:38:57.780Z,96298.63
2022-08-26T17:41:26.674Z,96295.72
2022-08-26T17:43:55.272Z,96293.56
2022-08-26T17:46:23.547Z,96298.78
2022-08-26T17:48:53.054Z,96305.53
2022-08-26T17:51:22.646Z,96286.91
2022-08-26T17:53:52.046Z,96297.16
2022-08-26T17:56:25.419Z,96314.88
2022-08-26T17:58:55.135Z,96303.63
2022-08-26T18:01:28.118Z,96300.53
2022-08-26T18:04:00.535Z,96294.75
2022-08-26T18:06:31.017Z,96288.34
2022-08-26T18:08:59.921Z,96291.63
2022-08-26T18:11:29.316Z,96289.47
2022-08-26T18:13:57.875Z,96287.13
2022-08-26T18:16:26.155Z,96286.34
2022-08-26T18:18:55.276Z,96284.78
2022-08-26T18:21:28.288Z,96291.25
2022-08-26T18:23:56.525Z,96283.22
2022-08-26T18:26:28.213Z,96280.59
2022-08-26T18:28:56.544Z,96294.31
2022-08-26T18:31:24.826Z,96290.31
2022-08-26T18:33:53.846Z,96296.25
2022-08-26T18:36:29.011Z,96293.50
2022-08-26T18:38:59.291Z,96305.16
2022-08-26T18:41:30.744Z,96314.00
2022-08-26T18:43:59.745Z,96326.38
2022-08-26T18:46:29.410Z,96338.41
2022-08-26T18:48:58.761Z,96346.00
2022-08-26T18:51:31.569Z,96364.66
2022-08-26T18:54:02.359Z,96374.63
2022-08-26T18:56:31.126Z,96379.53
2022-08-26T18:59:00.474Z,96374.84
2022-08-26T19:01:30.691Z,96380.41
2022-08-26T19:04:03.620Z,96384.16
2022-08-26T19:06:35.533Z,96388.75
2022-08-26T19:09:05.656Z,96373.97
2022-08-26T19:11:37.315Z,96391.41
2022-08-26T19:14:08.246Z,96384.97
2022-08-26T19:16:37.544Z,96382.56
2022-08-26T19:19:07.160Z,96382.81
2022-08-26T19:21:38.095Z,96383.88
2022-08-26T19:24:15.094Z,96384.44
2022-08-26T19:26:43.875Z,96383.63
2022-08-26T19:29:13.092Z,96380.69
2022-08-26T19:31:42.195Z,96377.22
2022-08-26T19:34:12.996Z,96383.97
2022-08-26T19:36:43.041Z,96386.66
2022-08-26T19:39:13.466Z,96380.53
2022-08-26T19:41:42.201Z,96387.72
2022-08-26T19:44:33.889Z,96389.09
2022-08-26T19:47:03.468Z,96386.66
2022-08-26T19:49:31.771Z,96386.69
2022-08-26T19:52:02.827Z,96385.44
2022-08-26T19:54:31.297Z,96378.78
2022-08-26T19:56:59.419Z,96383.66
2022-08-26T19:59:27.982Z,96373.47
2022-08-26T20:02:01.178Z,96368.97
2022-08-26T20:04:31.266Z,96377.00
2022-08-26T20:07:02.243Z,96378.53
2022-08-26T20:09:31.593Z,96376.66
2022-08-26T20:11:59.897Z,96371.84
2022-08-26T20:14:28.555Z,96377.75
2022-08-26T20:16:56.688Z,96377.00
2022-08-26T20:19:43.519Z,96383.78
2022-08-26T20:22:14.213Z,96378.44
2022-08-26T20:24:42.574Z,96376.84
2022-08-26T20:27:11.075Z,96377.88
2022-08-26T20:29:40.370Z,96365.06
2022-08-26T20:32:09.103Z,96369.09
2022-08-26T20:34:38.094Z,96373.06
2022-08-26T20:37:08.294Z,96366.97
2022-08-26T20:39:37.821Z,96374.72
2022-08-26T20:42:20.320Z,96373.66
2022-08-26T20:44:54.676Z,96374.75
2022-08-26T20:47:23.262Z,96381.66
2022-08-26T20:49:52.511Z,96391.00
2022-08-26T20:52:21.514Z,96396.91
2022-08-26T20:54:50.907Z,96396.63
2022-08-26T20:57:19.052Z,96394.53
2022-08-26T20:59:47.073Z,96403.63
2022-08-26T21:02:15.110Z,96397.03
2022-08-26T21:04:43.255Z,96406.22
2022-08-26T21:07:11.342Z,96409.19
2022-08-26T21:09:42.303Z,96414.31
2022-08-26T21:12:11.781Z,96418.28
2022-08-26T21:14:39.873Z,96419.13
2022-08-26T21:17:09.267Z,96415.91
2022-08-26T21:19:37.789Z,96416.97
2022-08-26T21:22:06.400Z,96409.22
2022-08-26T21:24:34.563Z,96408.63
2022-08-26T21:27:02.588Z,96403.88
2022-08-26T21:29:32.016Z,96406.22
2022-08-26T21:32:00.072Z,96404.63
2022-08-26T21:34:28.374Z,96401.97
2022-08-26T21:36:56.446Z,96403.28
2022-08-26T21:39:24.792Z,96405.91
2022-08-26T21:41:52.833Z,96409.41
2022-08-26T21:44:21.484Z,96403.78
2022-08-26T21:46:50.919Z,96397.81
2022-08-26T21:49:19.403Z,96400.47
2022-08-26T21:51:49.306Z,96402.66
2022-08-26T21:54:18.049Z,96401.63
2022-08-26T21:56:47.879Z,96396.78
2022-08-26T21:59:19.188Z,96412.84
2022-08-26T22:01:47.576Z,96408.03
2022-08-26T22:04:18.066Z,96401.16
2022-08-26T22:06:49.676Z,96405.47
2022-08-26T22:09:21.860Z,96414.06
2022-08-26T22:11:50.378Z,96409.53
2022-08-26T22:14:21.957Z,96415.16
2022-08-26T22:16:50.892Z,96412.47
2022-08-26T22:19:21.028Z,96411.66
2022-08-26T22:21:54.349Z,96416.75
2022-08-26T22:24:25.082Z,96419.91
2022-08-26T22:26:54.107Z,96425.03
2022-08-26T22:29:22.448Z,96431.44
2022-08-26T22:31:50.514Z,96436.03
2022-08-26T22:34:21.083Z,96438.41
2022-08-26T22:36:50.937Z,96437.31
2022-08-26T22:39:23.905Z,96436.78
2022-08-26T22:41:53.303Z,96438.66
2022-08-26T22:44:22.449Z,96444.31
2022-08-26T22:46:54.686Z,96445.63
2022-08-26T22:49:25.244Z,96449.66
2022-08-26T22:51:53.325Z,96454.19
2022-08-26T22:54:21.777Z,96452.63
2022-08-26T22:56:49.930Z,96453.13
2022-08-26T22:59:18.022Z,96450.97
2022-08-26T23:01:47.287Z,96443.22
2022-08-26T23:04:16.075Z,96438.41
2022-08-26T23:06:47.767Z,96441.34
2022-08-26T23:09:17.967Z,96440.28
2022-08-26T23:11:46.840Z,96434.94
2022-08-26T23:14:15.081Z,96432.25
2022-08-26T23:16:43.811Z,96428.25
2022-08-26T23:19:14.085Z,96428.47
2022-08-26T23:21:42.415Z,96422.56
2022-08-26T23:24:12.678Z,96420.16
2022-08-26T23:26:42.919Z,96418.03
2022-08-26T23:29:13.561Z,96414.81
2022-08-26T23:31:43.623Z,96417.72
2022-08-26T23:34:29.988Z,96412.88
2022-08-26T23:36:58.936Z,96414.47
2022-08-26T23:39:28.641Z,96417.16
2022-08-26T23:41:57.320Z,96411.31
2022-08-26T23:44:26.594Z,96408.34
2022-08-26T23:46:54.863Z,96405.34
2022-08-26T23:49:23.235Z,96407.75
2022-08-26T23:52:09.065Z,96401.78
2022-08-26T23:54:39.017Z,96405.28
2022-08-26T23:57:07.674Z,96407.22
2022-08-26T23:59:37.415Z,96399.94
